ADDS METAR Data INFO
IDs: Format: Raw Decoded Include TAF

Data at: 0856 UTC 22 Feb 2018

KPAN 220835Z AUTO 00000KT 10SM FEW070 OVC090 M01/M10 A3003 RMK AO2
KPAN 220815Z AUTO 00000KT 10SM FEW075 BKN095 BKN120 M01/M11 A3003 RMK AO2
KPAN 220755Z AUTO 00000KT 10SM BKN100 BKN120 M00/M11 A3003 RMK AO2
KPAN 220735Z AUTO 00000KT 10SM FEW075 BKN090 OVC110 00/M11 A3004 RMK AO2
KPAN 220715Z AUTO 00000KT 10SM FEW075 OVC090 01/M11 A3004 RMK AO2
KPAN 220655Z AUTO 00000KT 10SM OVC090 01/M12 A3004 RMK AO2
KPAN 220635Z AUTO 00000KT 10SM SCT070 OVC090 01/M13 A3004 RMK AO2
KPAN 220615Z AUTO 00000KT 10SM OVC065 01/M13 A3004 RMK AO2
KPAN 220555Z AUTO 00000KT 10SM OVC070 01/M12 A3005 RMK AO2
KPAN 220535Z AUTO 00000KT 10SM BKN070 OVC075 01/M12 A3004 RMK AO2
KPAN 220515Z AUTO 00000KT 10SM OVC075 01/M12 A3005 RMK AO2
KPAN 220455Z AUTO 00000KT 10SM OVC075 02/M11 A3004 RMK AO2
KPAN 220435Z AUTO 00000KT 10SM OVC070 02/M12 A3004 RMK AO2
KPAN 220415Z AUTO 24003KT 10SM BKN070 OVC085 02/M10 A3004 RMK AO2
KPAN 220355Z AUTO 00000KT 10SM FEW070 BKN080 OVC090 01/M10 A3003 RMK AO2
KPAN 220035Z AUTO 22006G14KT 10SM FEW090 04/M10 A3001 RMK AO2
KPAN 220015Z AUTO 20009KT 10SM CLR 05/M10 A3000 RMK AO2
KPAN 212355Z AUTO 20009KT 10SM CLR 05/M09 A3000 RMK AO2
KPAN 212315Z AUTO 21007G14KT 10SM CLR 05/M10 A3000 RMK AO2
KPAN 212255Z AUTO VRB06G14KT 10SM CLR 05/M10 A3000 RMK AO2
KPAN 212235Z AUTO 21010KT 10SM CLR 06/M09 A3000 RMK AO2
KPAN 212215Z AUTO 21009G16KT 10SM FEW060 06/M10 A3000 RMK AO2
KPAN 212155Z AUTO 20009G15KT 10SM SCT055 06/M09 A2999 RMK AO2
KPAN 212135Z AUTO 17009G14KT 130V210 10SM SCT055 07/M09 A3000 RMK AO2
KPAN 212115Z AUTO 18008G15KT 130V220 10SM FEW055 06/M09 A3000 RMK AO2
KPAN 212055Z AUTO 18008G21KT 10SM FEW055 06/M09 A3001 RMK AO2
KPAN 212035Z AUTO 19007G18KT 160V240 10SM CLR 06/M09 A3001 RMK AO2
KPAN 212015Z AUTO 18010G18KT 150V210 10SM FEW050 06/M08 A3001 RMK AO2
KPAN 211955Z AUTO 18009G16KT 10SM FEW050 06/M08 A3003 RMK AO2
KPAN 211935Z AUTO 17009G17KT 140V210 10SM FEW050 06/M09 A3003 RMK AO2
KPAN 211915Z AUTO VRB05G16KT 10SM FEW050 05/M09 A3004 RMK AO2
KPAN 211855Z AUTO 16008G15KT 140V210 10SM FEW050 05/M08 A3005 RMK AO2
KPAN 211835Z AUTO 18009KT 150V210 10SM SCT045 05/M08 A3006 RMK AO2
KPAN 211815Z AUTO 18006G13KT 10SM BKN045 04/M09 A3006 RMK AO2
KPAN 211755Z AUTO 20008G14KT 10SM OVC045 04/M09 A3006 RMK AO2
KPAN 211735Z AUTO 18006G13KT 10SM OVC043 03/M09 A3006 RMK AO2
KPAN 211715Z AUTO 17007KT 140V200 10SM BKN044 04/M09 A3006 RMK AO2
KPAN 211655Z AUTO VRB05G10KT 10SM CLR 03/M10 A3006 RMK AO2
KPAN 211635Z AUTO VRB05KT 10SM CLR 03/M10 A3005 RMK AO2
KPAN 211615Z AUTO 00000KT 10SM CLR 02/M10 A3006 RMK AO2
KPAN 211555Z AUTO 08004KT 10SM CLR 01/M10 A3005 RMK AO2
KPAN 211535Z AUTO 09004KT 10SM CLR M00/M10 A3004 RMK AO2
KPAN 211515Z AUTO 08004KT 10SM CLR M01/M10 A3004 RMK AO2
KPAN 211455Z AUTO 00000KT 10SM CLR M03/M09 A3004 RMK AO2
KPAN 211435Z AUTO 00000KT 10SM CLR M04/M10 A3004 RMK AO2
KPAN 211415Z AUTO 00000KT 10SM CLR M05/M10 A3004 RMK AO2
KPAN 211355Z AUTO 05003KT 10SM CLR M04/M10 A3004 RMK AO2
KPAN 211335Z AUTO 06003KT 10SM CLR M04/M10 A3003 RMK AO2
KPAN 211315Z AUTO 00000KT 10SM CLR M04/M11 A3003 RMK AO2
KPAN 211255Z AUTO 07003KT 10SM CLR M03/M11 A3002 RMK AO2
KPAN 211235Z AUTO 00000KT 10SM CLR M04/M11 A3002 RMK AO2
KPAN 210755Z AUTO 00000KT 10SM CLR M04/M10 A3005 RMK AO2
KPAN 210735Z AUTO 00000KT 10SM CLR M04/M10 A3006 RMK AO2
KPAN 210715Z AUTO 00000KT 10SM CLR M04/M10 A3006 RMK AO2
KPAN 210655Z AUTO 00000KT 10SM CLR M04/M10 A3006 RMK AO2
KPAN 210635Z AUTO 00000KT 10SM CLR M03/M10 A3006 RMK AO2
KPAN 210615Z AUTO 00000KT 10SM CLR M03/M11 A3006 RMK AO2
KPAN 210555Z AUTO 00000KT 10SM CLR M03/M10 A3006 RMK AO2